RJNS

Mt. Fuji Shizuoka Airport

Makinohara / Shimada, Japan
TAF RJNS 221105Z 2212/2318 27012KT 9999 FEW030 TEMPO 2303/2309 26020G30KT BECMG 2309/2312 26020G32KT
Issued Valid From Valid To
Jan-22 @ 11:05 UTC
(6 hours ago)
Jan-22 @ 12:00 UTC
(5 hours ago)
Jan-23 @ 18:00 UTC
(-1 days ago)
Jan-22 @ 12:00 to Jan-23 @ 09:00
TAF RJNS 221105Z 2212/2318 27012KT 9999 FEW030
Wind Visibility Clouds
270° at 12 knots 10,000+ meters
  • Few at 3,000' AGL
Temporary Jan-23 @ 03:00 to Jan-23 @ 09:00
TEMPO 2303/2309 26020G30KT
Wind
260° at 20 knots
 Gusting to 30 knots
Becoming Jan-23 @ 09:00 to Jan-23 @ 18:00
BECMG 2309/2312 26020G32KT
Wind Visibility Clouds
260° at 20 knots
 Gusting to 32 knots
10,000+ meters
  • Few at 3,000' AGL
TAF RJNS 221105Z 2212/2318 27012KT 9999 FEW030 TEMPO 2303/2309 26020G30KT BECMG 2309/2312 26020G32KT
Issued Jan-22 @ 11:05 UTC
(6 hours ago)
Valid From Jan-22 @ 12:00 UTC
(5 hours ago)
Valid To Jan-23 @ 18:00 UTC
(-1 days ago)
Jan-22 @ 12:00 - Jan-23 @ 09:00
Wind Visibility
270° at 12 knots 10,000+ meters
Clouds
  • Few at 3,000' AGL
Temporary Jan-23 @ 03:00 - Jan-23 @ 09:00
Wind
260° at 20 knots
 Gusting to 30 knots
Becoming Jan-23 @ 09:00 - Jan-23 @ 18:00
Wind Visibility
260° at 20 knots
 Gusting to 32 knots
10,000+ meters
Clouds
  • Few at 3,000' AGL